Time;durP1;ratioP1;P1;durP2;ratioP2;P2;SDS_P1;SDS_P2;PMS_P1;PMS_P2;Temp;Humidity;BMP_temperature;BMP_pressure;BME280_temperature;BME280_humidity;BME280_pressure;Samples;Min_cycle;Max_cycle;Signal;HPM_P1;HPM_P2
2023/12/17 00:02:23;;;;;;;3.70;3.40;;;;;;;9.28;100.00;103738.38;5136229;27;20047;-78
2023/12/17 00:04:50;;;;;;;6.35;3.25;;;;;;;9.28;100.00;103741.03;5137394;27;20044;-78
2023/12/17 00:07:16;;;;;;;7.03;3.30;;;;;;;9.28;100.00;103735.72;5152902;27;20067;-78
2023/12/17 00:09:43;;;;;;;6.00;3.35;;;;;;;9.27;100.00;103745.59;5119000;27;20143;-78
2023/12/17 00:12:09;;;;;;;4.60;3.67;;;;;;;9.28;100.00;103735.72;5140935;27;20039;-78
2023/12/17 00:14:36;;;;;;;4.13;3.17;;;;;;;9.30;100.00;103741.47;5177348;27;20050;-78
2023/12/17 00:17:03;;;;;;;4.07;3.22;;;;;;;9.29;100.00;103726.63;5178043;27;20050;-78
2023/12/17 00:19:29;;;;;;;6.43;3.67;;;;;;;9.28;100.00;103738.38;5179599;27;20043;-78
2023/12/17 00:21:56;;;;;;;6.43;3.70;;;;;;;9.28;100.00;103733.06;5163709;27;20047;-78
2023/12/17 00:24:23;;;;;;;6.10;3.42;;;;;;;9.28;100.00;103733.06;5181553;27;20030;-78
2023/12/17 00:26:49;;;;;;;4.35;3.65;;;;;;;9.28;100.00;103741.03;5164092;27;20058;-78
2023/12/17 00:29:16;;;;;;;6.82;3.30;;;;;;;9.27;100.00;103745.59;5181608;27;20039;-78
2023/12/17 00:31:42;;;;;;;6.32;3.60;;;;;;;9.28;100.00;103749.03;5159318;27;20566;-78
2023/12/17 00:34:09;;;;;;;4.20;2.85;;;;;;;9.28;100.00;103754.34;5145062;27;20048;-78
2023/12/17 00:36:36;;;;;;;5.00;3.10;;;;;;;9.28;100.00;103751.69;5161639;27;20505;-78
2023/12/17 00:39:02;;;;;;;4.50;3.15;;;;;;;9.28;100.00;103749.03;5161922;27;20054;-78
2023/12/17 00:41:29;;;;;;;5.85;3.60;;;;;;;9.26;100.00;103744.06;5163071;27;20043;-78
2023/12/17 00:43:55;;;;;;;5.50;3.50;;;;;;;9.27;100.00;103736.84;5163030;27;20413;-78
2023/12/17 00:46:22;;;;;;;6.97;3.22;;;;;;;9.28;100.00;103733.84;5163562;27;20522;-78
2023/12/17 00:48:48;;;;;;;7.32;3.42;;;;;;;9.28;100.00;103738.38;5163450;27;20050;-78
2023/12/17 00:51:15;;;;;;;5.38;3.22;;;;;;;9.27;100.00;103742.16;5179647;27;20521;-78
2023/12/17 00:53:42;;;;;;;3.72;2.97;;;;;;;9.26;100.00;103730.78;5181061;27;20078;-78
2023/12/17 00:56:09;;;;;;;5.03;3.72;;;;;;;9.26;100.00;103730.78;5162982;27;20047;-78
2023/12/17 00:58:36;;;;;;;5.95;3.30;;;;;;;9.27;100.00;103731.53;5180096;27;20126;-78
2023/12/17 01:01:03;;;;;;;5.72;3.75;;;;;;;9.27;100.00;103726.22;5180812;27;20509;-78
2023/12/17 01:03:30;;;;;;;4.88;3.75;;;;;;;9.25;100.00;103731.13;5179702;27;20034;-78
2023/12/17 01:05:57;;;;;;;5.90;3.95;;;;;;;9.25;100.00;103731.13;5142435;27;20039;-78
2023/12/17 01:08:24;;;;;;;6.20;3.63;;;;;;;9.25;100.00;103726.56;5148576;27;20082;-78
2023/12/17 01:10:50;;;;;;;6.22;3.45;;;;;;;9.24;100.00;103721.63;5142203;27;20520;-78
2023/12/17 01:13:17;;;;;;;9.13;3.85;;;;;;;9.22;100.00;103706.03;5180093;27;20127;-78
2023/12/17 01:15:43;;;;;;;5.55;3.42;;;;;;;9.22;100.00;103705.25;5142263;27;20074;-76
2023/12/17 01:18:10;;;;;;;3.70;3.35;;;;;;;9.20;100.00;103692.31;5161453;27;20043;-78
2023/12/17 01:20:37;;;;;;;7.25;3.78;;;;;;;9.19;100.00;103693.47;5179438;27;20046;-78
2023/12/17 01:23:04;;;;;;;8.75;3.53;;;;;;;9.19;100.00;103687.41;5179910;27;20115;-78
2023/12/17 01:25:30;;;;;;;7.28;3.22;;;;;;;9.19;100.00;103682.84;5182073;27;20047;-78
2023/12/17 01:27:57;;;;;;;5.18;3.30;;;;;;;9.18;100.00;103677.88;5182494;27;20050;-78
2023/12/17 01:30:24;;;;;;;3.85;3.38;;;;;;;9.15;100.00;103678.59;5162454;27;20095;-78
2023/12/17 01:32:51;;;;;;;8.45;3.58;;;;;;;9.16;100.00;103680.13;5145797;27;20148;-78
2023/12/17 01:35:17;;;;;;;11.48;3.55;;;;;;;9.16;100.00;103686.22;5163231;27;20118;-78
2023/12/17 01:37:44;;;;;;;3.72;3.38;;;;;;;9.15;100.00;103697.97;5162190;27;20039;-76
2023/12/17 01:40:11;;;;;;;5.20;3.47;;;;;;;9.17;100.00;103694.97;5181982;27;20121;-78
2023/12/17 01:42:37;;;;;;;5.57;3.97;;;;;;;9.16;100.00;103702.16;5182697;27;20034;-78
2023/12/17 01:45:06;;;;;;;4.70;3.90;;;;;;;9.17;100.00;103713.56;5182400;27;20039;-78
2023/12/17 01:47:32;;;;;;;6.75;3.30;;;;;;;9.17;100.00;103724.19;5163265;27;20047;-78
2023/12/17 01:49:59;;;;;;;6.72;4.05;;;;;;;9.17;100.00;103729.50;5182185;27;20047;-78
2023/12/17 01:52:26;;;;;;;5.78;3.72;;;;;;;9.17;100.00;103718.88;5188050;27;20111;-78
2023/12/17 01:54:52;;;;;;;5.45;3.50;;;;;;;9.17;100.00;103726.84;5185262;27;20479;-78
2023/12/17 01:57:19;;;;;;;4.20;3.72;;;;;;;9.17;100.00;103719.66;5159279;27;20513;-77
2023/12/17 01:59:46;;;;;;;8.80;3.90;;;;;;;9.17;100.00;103711.66;5158121;27;20524;-77
2023/12/17 02:02:13;;;;;;;4.20;3.45;;;;;;;9.16;100.00;103720.00;5158627;27;20138;-77
2023/12/17 02:04:40;;;;;;;5.40;3.55;;;;;;;9.16;100.00;103722.66;5158756;27;20054;-77
2023/12/17 02:07:07;;;;;;;7.57;3.40;;;;;;;9.17;100.00;103726.84;5140938;27;20830;-77
2023/12/17 02:09:33;;;;;;;3.75;3.40;;;;;;;9.15;100.00;103719.22;5177724;27;20045;-77
2023/12/17 02:12:00;;;;;;;5.80;3.17;;;;;;;9.16;100.00;103727.97;5159196;27;20084;-77
2023/12/17 02:14:27;;;;;;;4.95;4.22;;;;;;;9.16;100.00;103730.63;5158376;27;20103;-77
2023/12/17 02:16:53;;;;;;;4.30;3.28;;;;;;;9.16;100.00;103730.63;5173127;27;20126;-77
2023/12/17 02:19:20;;;;;;;4.20;3.72;;;;;;;9.16;100.00;103738.59;5159390;27;20553;-77
2023/12/17 02:21:47;;;;;;;3.13;2.92;;;;;;;9.16;100.00;103725.31;5160145;27;20077;-77
2023/12/17 02:24:14;;;;;;;5.32;3.05;;;;;;;9.16;100.00;103728.75;5158391;27;20043;-77
2023/12/17 02:26:42;;;;;;;6.47;3.47;;;;;;;9.14;100.00;103730.22;5157517;27;20054;-77
2023/12/17 02:29:09;;;;;;;4.05;3.20;;;;;;;9.15;100.00;103726.44;5176211;27;20137;-77
2023/12/17 02:31:36;;;;;;;3.40;3.05;;;;;;;9.15;100.00;103721.13;5148950;27;20078;-77
2023/12/17 02:34:02;;;;;;;4.82;3.03;;;;;;;9.16;100.00;103720.00;5176826;27;20062;-77
2023/12/17 02:36:29;;;;;;;7.05;3.10;;;;;;;9.13;100.00;103732.09;5176257;27;20522;-77
2023/12/17 02:38:55;;;;;;;4.40;3.20;;;;;;;9.14;100.00;103732.88;5176035;27;20110;-77
2023/12/17 02:41:22;;;;;;;3.33;2.97;;;;;;;9.14;100.00;103736.31;5157380;27;20137;-77
2023/12/17 02:43:49;;;;;;;3.97;3.35;;;;;;;9.14;100.00;103732.88;5157294;27;20069;-76
2023/12/17 02:46:16;;;;;;;3.47;3.17;;;;;;;9.12;100.00;103730.56;5156740;27;20124;-76
2023/12/17 02:48:42;;;;;;;5.55;3.80;;;;;;;9.13;100.00;103723.38;5175727;27;20074;-77
2023/12/17 02:51:09;;;;;;;5.10;3.30;;;;;;;9.12;100.00;103727.16;5157758;27;20096;-77
2023/12/17 02:53:36;;;;;;;6.85;3.30;;;;;;;9.12;100.00;103722.59;5175706;27;20133;-77
2023/12/17 02:56:03;;;;;;;4.65;3.00;;;;;;;9.11;100.00;103721.06;5140040;27;20497;-77
2023/12/17 02:58:29;;;;;;;7.30;3.10;;;;;;;9.12;100.00;103719.19;5176311;27;20039;-77
2023/12/17 03:00:56;;;;;;;5.28;3.20;;;;;;;9.10;100.00;103714.22;5140270;27;20139;-76
2023/12/17 03:03:22;;;;;;;3.95;2.70;;;;;;;9.11;100.00;103715.75;5156466;27;20390;-76
2023/12/17 03:05:49;;;;;;;7.80;3.30;;;;;;;9.11;100.00;103715.75;5175503;27;20121;-76
2023/12/17 03:08:16;;;;;;;3.15;2.60;;;;;;;9.11;100.00;103715.75;5176475;27;20043;-76
2023/12/17 03:10:43;;;;;;;4.30;2.70;;;;;;;9.12;100.00;103709.31;5157530;27;20050;-76
2023/12/17 03:13:09;;;;;;;6.68;3.17;;;;;;;9.10;100.00;103711.56;5174818;27;20054;-76
2023/12/17 03:15:37;;;;;;;5.00;2.97;;;;;;;9.11;100.00;103707.00;5175555;27;20043;-76
2023/12/17 03:18:04;;;;;;;4.13;2.90;;;;;;;9.11;100.00;103710.44;5172373;27;20045;-76
2023/12/17 03:20:31;;;;;;;5.68;2.50;;;;;;;9.11;100.00;103707.00;5156587;27;20054;-76
2023/12/17 03:22:58;;;;;;;7.43;3.20;;;;;;;9.10;100.00;103708.13;5176287;27;20493;-76
2023/12/17 03:25:26;;;;;;;4.50;2.70;;;;;;;9.10;100.00;103700.94;5155765;27;20058;-76
2023/12/17 03:27:52;;;;;;;3.35;2.50;;;;;;;9.11;100.00;103696.38;5175167;27;20129;-76
2023/12/17 03:30:19;;;;;;;5.03;2.72;;;;;;;9.11;100.00;103699.81;5156492;27;20194;-76
2023/12/17 03:32:46;;;;;;;6.45;2.60;;;;;;;9.11;100.00;103699.03;5175179;27;20047;-76
2023/12/17 03:35:13;;;;;;;4.18;2.65;;;;;;;9.11;100.00;103683.88;5175038;27;20119;-76
2023/12/17 03:37:40;;;;;;;3.90;3.20;;;;;;;9.10;100.00;103684.97;5157321;27;20545;-76
2023/12/17 03:40:07;;;;;;;10.27;2.90;;;;;;;9.10;100.00;103684.97;5156734;27;20610;-76
2023/12/17 03:42:34;;;;;;;10.00;3.08;;;;;;;9.09;100.00;103680.78;5155316;27;20092;-76
2023/12/17 03:45:01;;;;;;;4.35;3.22;;;;;;;9.10;100.00;103671.69;5157790;27;20130;-76
2023/12/17 03:47:28;;;;;;;5.82;3.35;;;;;;;9.10;100.00;103671.69;5174817;27;20814;-76
2023/12/17 03:49:55;;;;;;;4.38;3.60;;;;;;;9.09;100.00;103664.84;5155709;27;20119;-76
2023/12/17 03:52:21;;;;;;;6.20;3.80;;;;;;;9.09;100.00;103669.41;5175395;27;20429;-76
2023/12/17 03:54:48;;;;;;;6.20;3.33;;;;;;;9.09;100.00;103656.88;5177863;27;20550;-76
2023/12/17 03:57:14;;;;;;;8.07;4.00;;;;;;;9.08;100.00;103652.69;5179324;27;20039;-78
2023/12/17 03:59:41;;;;;;;10.43;4.47;;;;;;;9.08;100.00;103655.34;5161480;27;20049;-76
2023/12/17 04:02:08;;;;;;;13.90;4.40;;;;;;;9.09;100.00;103656.88;5175010;27;20838;-76
2023/12/17 04:04:34;;;;;;;13.98;4.50;;;;;;;9.08;100.00;103652.69;5178678;27;20592;-76
2023/12/17 04:07:01;;;;;;;10.30;4.30;;;;;;;9.07;100.00;103653.03;5142696;27;20050;-76
2023/12/17 04:09:27;;;;;;;9.40;4.47;;;;;;;9.07;100.00;103656.47;5159249;27;21196;-76
2023/12/17 04:11:54;;;;;;;8.05;4.20;;;;;;;9.06;100.00;103654.94;5142722;27;20070;-76
2023/12/17 04:14:21;;;;;;;10.52;4.88;;;;;;;9.05;100.00;103650.75;5160430;27;20141;-77
2023/12/17 04:16:48;;;;;;;6.35;4.70;;;;;;;9.06;100.00;103654.94;5178825;27;20046;-76
2023/12/17 04:19:14;;;;;;;8.32;4.28;;;;;;;9.05;100.00;103658.72;5160373;27;20576;-76
2023/12/17 04:21:41;;;;;;;7.20;4.53;;;;;;;9.03;100.00;103648.44;5178933;27;20570;-76
2023/12/17 04:24:08;;;;;;;6.07;4.55;;;;;;;9.04;100.00;103646.53;5160152;27;20078;-76
2023/12/17 04:26:35;;;;;;;6.40;4.65;;;;;;;9.03;100.00;103642.34;5178875;27;20100;-76
2023/12/17 04:29:02;;;;;;;7.95;4.10;;;;;;;9.03;100.00;103637.03;5179036;27;20088;-76
2023/12/17 04:31:28;;;;;;;8.40;4.60;;;;;;;9.01;100.00;103640.06;5178235;27;20063;-76
2023/12/17 04:33:55;;;;;;;6.82;4.30;;;;;;;9.00;100.00;103627.13;5159158;27;20055;-77
2023/12/17 04:36:22;;;;;;;6.43;4.18;;;;;;;9.00;100.00;103632.44;5178695;27;20122;-77
2023/12/17 04:38:48;;;;;;;6.03;3.95;;;;;;;9.00;100.00;103638.53;5178719;27;20047;-77
2023/12/17 04:41:15;;;;;;;12.85;3.83;;;;;;;8.99;100.00;103649.50;5159410;27;20076;-76
2023/12/17 04:43:42;;;;;;;7.00;3.63;;;;;;;8.99;100.00;103654.81;5160327;27;20051;-76
2023/12/17 04:46:09;;;;;;;3.83;3.00;;;;;;;8.98;100.00;103653.28;5179332;27;20367;-76
2023/12/17 04:48:36;;;;;;;5.72;3.20;;;;;;;8.96;100.00;103653.66;5159713;27;20043;-76
2023/12/17 04:51:02;;;;;;;5.22;3.25;;;;;;;8.96;100.00;103643.03;5160577;27;20042;-76
2023/12/17 04:53:29;;;;;;;4.28;2.83;;;;;;;8.95;100.00;103643.38;5178431;27;20122;-76
2023/12/17 04:55:56;;;;;;;5.25;2.65;;;;;;;8.94;100.00;103644.50;5178489;27;20046;-77
2023/12/17 04:58:24;;;;;;;7.30;3.15;;;;;;;8.91;100.00;103642.56;5158381;27;20046;-77
2023/12/17 05:00:51;;;;;;;6.93;3.35;;;;;;;8.89;100.00;103632.28;5159786;27;20095;-77
2023/12/17 05:03:17;;;;;;;6.25;2.92;;;;;;;8.89;100.00;103626.19;5159826;27;20038;-76
2023/12/17 05:05:44;;;;;;;7.28;2.75;;;;;;;8.86;100.00;103627.69;5174543;27;20069;-77
2023/12/17 05:08:11;;;;;;;5.72;2.88;;;;;;;8.86;100.00;103629.56;5178259;27;20043;-77
2023/12/17 05:10:37;;;;;;;6.38;3.10;;;;;;;8.85;100.00;103639.44;5177406;27;20049;-77
2023/12/17 05:13:04;;;;;;;5.90;3.17;;;;;;;8.84;100.00;103634.47;5177893;27;20437;-77
2023/12/17 05:15:31;;;;;;;5.90;2.97;;;;;;;8.84;100.00;103632.59;5158529;27;20050;-77
2023/12/17 05:17:58;;;;;;;4.25;3.25;;;;;;;8.84;100.00;103631.81;5178338;27;20038;-77
2023/12/17 05:20:25;;;;;;;6.70;3.30;;;;;;;8.83;100.00;103627.63;5158042;27;20504;-77
2023/12/17 05:22:52;;;;;;;6.05;3.03;;;;;;;8.83;100.00;103633.72;5178366;27;20509;-77
2023/12/17 05:25:18;;;;;;;5.20;2.72;;;;;;;8.83;100.00;103646.22;5159388;27;20057;-77
2023/12/17 05:27:45;;;;;;;5.88;2.70;;;;;;;8.82;100.00;103647.34;5141738;27;20484;-77
2023/12/17 05:30:12;;;;;;;6.50;2.60;;;;;;;8.83;100.00;103656.84;5177307;27;20550;-77
2023/12/17 05:32:39;;;;;;;5.78;2.63;;;;;;;8.80;100.00;103645.03;5177574;27;20087;-77
2023/12/17 05:35:06;;;;;;;6.10;2.60;;;;;;;8.81;100.00;103633.28;5177826;27;20049;-77
2023/12/17 05:37:33;;;;;;;6.38;2.72;;;;;;;8.81;100.00;103632.53;5157747;27;20070;-77
2023/12/17 05:40:00;;;;;;;10.45;2.95;;;;;;;8.80;100.00;103625.69;5177855;27;20054;-77
2023/12/17 05:42:27;;;;;;;4.35;2.90;;;;;;;8.80;100.00;103626.44;5140483;27;20046;-77
2023/12/17 05:44:54;;;;;;;4.82;3.25;;;;;;;8.78;100.00;103618.09;5158968;27;20107;-77
2023/12/17 05:47:20;;;;;;;7.72;3.65;;;;;;;8.79;100.00;103619.63;5157999;27;20049;-77
2023/12/17 05:49:47;;;;;;;6.45;3.60;;;;;;;8.80;100.00;103623.03;5159232;27;20102;-77
2023/12/17 05:52:14;;;;;;;6.57;3.70;;;;;;;8.80;100.00;103615.06;5177111;27;20122;-77
2023/12/17 05:54:43;;;;;;;4.05;3.65;;;;;;;8.79;100.00;103614.31;5177618;27;20054;-77
2023/12/17 05:57:09;;;;;;;6.32;3.78;;;;;;;8.80;100.00;103625.69;5158560;27;20045;-77
2023/12/17 05:59:36;;;;;;;6.20;4.10;;;;;;;8.80;100.00;103625.69;5157824;27;20043;-77
2023/12/17 06:02:02;;;;;;;5.70;4.20;;;;;;;8.78;100.00;103620.75;5159060;27;20137;-77
2023/12/17 06:04:29;;;;;;;6.10;4.43;;;;;;;8.77;100.00;103635.16;5157671;27;20134;-77
2023/12/17 06:06:56;;;;;;;8.88;4.68;;;;;;;8.78;100.00;103627.94;5158331;27;20054;-77
2023/12/17 06:09:23;;;;;;;6.38;4.68;;;;;;;8.76;100.00;103636.28;5158111;27;20138;-77
2023/12/17 06:11:49;;;;;;;8.95;5.13;;;;;;;8.75;100.00;103637.41;5158606;27;20047;-77
2023/12/17 06:14:19;;;;;;;8.88;4.88;;;;;;;8.76;100.00;103641.59;5157462;27;20059;-77
2023/12/17 06:16:46;;;;;;;5.85;5.00;;;;;;;8.75;100.00;103634.75;5157019;27;20050;-77
2023/12/17 06:19:13;;;;;;;11.35;6.05;;;;;;;8.74;100.00;103651.81;5157542;27;20134;-77
2023/12/17 06:21:39;;;;;;;9.88;5.75;;;;;;;8.76;100.00;103638.16;5158852;27;20080;-77
2023/12/17 06:24:07;;;;;;;8.65;6.07;;;;;;;8.75;100.00;103648.03;5140881;27;20053;-77
2023/12/17 06:26:37;;;;;;;15.55;6.30;;;;;;;8.74;100.00;103657.13;5157122;27;20038;-77
2023/12/17 06:29:04;;;;;;;10.48;5.82;;;;;;;8.74;100.00;103648.38;5176163;27;20045;-77
2023/12/17 06:31:31;;;;;;;10.68;6.95;;;;;;;8.72;100.00;103661.25;5176934;27;20401;-77
2023/12/17 06:33:57;;;;;;;10.02;6.90;;;;;;;8.72;100.00;103654.03;5141074;27;20508;-77
2023/12/17 06:36:24;;;;;;;10.20;7.18;;;;;;;8.73;100.00;103652.94;5156868;27;20054;-77
2023/12/17 06:38:51;;;;;;;14.25;6.82;;;;;;;8.75;100.00;103655.22;5158442;27;20065;-77
2023/12/17 06:41:18;;;;;;;14.32;7.80;;;;;;;8.73;100.00;103652.16;5176850;27;20572;-77
2023/12/17 06:43:45;;;;;;;13.18;7.95;;;;;;;8.72;100.00;103655.94;5139871;27;20035;-77
2023/12/17 06:46:16;;;;;;;15.15;8.20;;;;;;;8.72;100.00;103650.63;5157272;27;20078;-77
2023/12/17 06:48:43;;;;;;;21.40;10.73;;;;;;;8.71;100.00;103649.84;5157795;27;20047;-77
2023/12/17 06:51:13;;;;;;;18.17;10.88;;;;;;;8.68;100.00;103654.00;5139608;27;20043;-77
2023/12/17 06:53:40;;;;;;;22.33;11.90;;;;;;;8.68;100.00;103661.97;5140077;27;20053;-77
2023/12/17 06:56:07;;;;;;;20.55;12.13;;;;;;;8.67;100.00;103649.03;5176134;27;20050;-77
2023/12/17 06:58:34;;;;;;;22.08;12.68;;;;;;;8.68;100.00;103658.53;5175909;27;20045;-77
2023/12/17 07:01:00;;;;;;;22.45;13.43;;;;;;;8.68;100.00;103646.03;5172488;27;20566;-77
2023/12/17 07:03:28;;;;;;;21.70;13.00;;;;;;;8.66;100.00;103656.22;5148913;27;20129;-77
2023/12/17 07:05:54;;;;;;;23.80;13.68;;;;;;;8.66;100.00;103658.13;5157272;27;20877;-77
2023/12/17 07:08:21;;;;;;;20.17;13.13;;;;;;;8.64;100.00;103653.16;5176372;27;20467;-77
2023/12/17 07:10:48;;;;;;;25.23;13.30;;;;;;;8.64;100.00;103653.16;5157878;27;20114;-78
2023/12/17 07:13:15;;;;;;;27.63;13.90;;;;;;;8.62;100.00;103650.09;5156766;27;20521;-77
2023/12/17 07:15:43;;;;;;;20.90;12.52;;;;;;;8.62;100.00;103650.09;5156917;27;20057;-77
2023/12/17 07:18:10;;;;;;;18.40;11.90;;;;;;;8.61;100.00;103655.75;5175474;27;20046;-76
2023/12/17 07:20:37;;;;;;;24.05;13.05;;;;;;;8.61;100.00;103653.88;5176524;27;20540;-77
2023/12/17 07:23:03;;;;;;;19.45;11.90;;;;;;;8.60;100.00;103646.25;5156763;27;20532;-76
2023/12/17 07:25:30;;;;;;;23.25;12.60;;;;;;;8.61;100.00;103656.53;5175190;27;21112;-76
2023/12/17 07:27:56;;;;;;;19.65;12.90;;;;;;;8.61;100.00;103645.91;5155646;27;20573;-78
2023/12/17 07:30:23;;;;;;;24.02;13.18;;;;;;;8.61;100.00;103645.91;5157022;27;20049;-77
2023/12/17 07:32:50;;;;;;;21.77;12.93;;;;;;;8.61;100.00;103645.91;5176198;27;20523;-76
2023/12/17 07:35:16;;;;;;;19.48;11.85;;;;;;;8.60;100.00;103644.38;5175076;27;20082;-76
2023/12/17 07:37:43;;;;;;;20.20;11.50;;;;;;;8.60;100.00;103644.38;5175356;27;20049;-76
2023/12/17 07:40:10;;;;;;;17.30;11.48;;;;;;;8.59;100.00;103648.16;5176534;27;20046;-76
2023/12/17 07:42:36;;;;;;;20.15;10.75;;;;;;;8.59;100.00;103645.50;5177495;27;20049;-76
2023/12/17 07:45:04;;;;;;;17.83;10.40;;;;;;;8.58;100.00;103646.63;5156770;27;20046;-76
2023/12/17 07:47:32;;;;;;;14.70;9.68;;;;;;;8.58;100.00;103646.63;5175761;27;20039;-76
2023/12/17 07:49:59;;;;;;;14.25;9.68;;;;;;;8.58;100.00;103651.16;5175220;27;20034;-77
2023/12/17 07:52:26;;;;;;;13.48;8.27;;;;;;;8.59;100.00;103653.47;5157341;27;20082;-80
2023/12/17 07:54:53;;;;;;;17.30;8.38;;;;;;;8.57;100.00;103645.06;5139738;27;20051;-78
2023/12/17 07:57:20;;;;;;;12.27;8.23;;;;;;;8.57;100.00;103654.94;5177170;27;20431;-79
2023/12/17 07:59:47;;;;;;;11.18;7.95;;;;;;;8.54;100.00;103640.47;5158096;27;20125;-78
2023/12/17 08:02:16;;;;;;;11.38;8.07;;;;;;;8.55;100.00;103652.63;5137750;27;20051;-78
2023/12/17 08:04:45;;;;;;;11.27;8.75;;;;;;;8.55;100.00;103649.22;5140620;27;20126;-77
2023/12/17 08:07:12;;;;;;;13.25;8.30;;;;;;;8.55;100.00;103655.28;5156885;27;20451;-80
2023/12/17 08:09:39;;;;;;;10.95;8.32;;;;;;;8.54;100.00;103653.75;5153664;27;20050;-75
2023/12/17 08:12:06;;;;;;;14.60;8.70;;;;;;;8.56;100.00;103658.72;5174920;27;20039;-76
2023/12/17 08:14:33;;;;;;;9.80;7.90;;;;;;;8.51;100.00;103661.66;5155765;27;20063;-76
2023/12/17 08:16:59;;;;;;;9.20;8.10;;;;;;;8.49;100.00;103658.59;5176009;27;20039;-78
2023/12/17 08:19:26;;;;;;;15.60;7.60;;;;;;;8.47;100.00;103652.84;5176108;27;20050;-78
2023/12/17 08:21:52;;;;;;;12.57;8.15;;;;;;;8.47;100.00;103653.63;5176855;27;20825;-77
2023/12/17 08:24:19;;;;;;;13.75;9.00;;;;;;;8.48;100.00;103641.13;5136834;27;20048;-79
2023/12/17 08:26:46;;;;;;;12.43;9.07;;;;;;;8.48;100.00;103655.16;5179998;27;20038;-79
2023/12/17 08:29:13;;;;;;;13.20;10.15;;;;;;;8.47;100.00;103644.91;5156238;27;20518;-78
2023/12/17 08:31:45;;;;;;;13.05;9.40;;;;;;;8.46;100.00;103646.00;5142947;27;20108;-78
2023/12/17 08:34:12;;;;;;;13.30;10.55;;;;;;;8.44;100.00;103654.34;5142158;27;20142;-78
2023/12/17 08:36:43;;;;;;;17.70;11.23;;;;;;;8.41;100.00;103652.38;5164043;27;20062;-80
2023/12/17 08:39:11;;;;;;;16.30;10.10;;;;;;;8.40;100.00;103650.84;5167072;27;20035;-78
2023/12/17 08:41:39;;;;;;;17.65;10.82;;;;;;;8.40;100.00;103660.72;5169772;27;20042;-79
2023/12/17 08:44:06;;;;;;;17.77;10.52;;;;;;;8.40;100.00;103660.72;5169342;27;20050;-79
2023/12/17 08:46:33;;;;;;;22.40;10.75;;;;;;;8.37;100.00;103653.47;5182977;27;20030;-79
2023/12/17 08:49:01;;;;;;;20.05;11.95;;;;;;;8.34;100.00;103657.59;5165006;27;20530;-79
2023/12/17 08:51:28;;;;;;;19.80;12.20;;;;;;;8.31;100.00;103650.31;5163174;27;20054;-79
2023/12/17 08:53:54;;;;;;;17.33;11.63;;;;;;;8.32;100.00;103655.28;5183199;27;20047;-79
2023/12/17 08:56:21;;;;;;;22.58;12.40;;;;;;;8.32;100.00;103649.19;5164029;27;20053;-79
2023/12/17 08:58:48;;;;;;;18.27;11.23;;;;;;;8.32;100.00;103649.97;5161849;27;20042;-80
2023/12/17 09:01:17;;;;;;;19.52;13.23;;;;;;;8.32;100.00;103652.63;5145648;27;20039;-80
2023/12/17 09:03:44;;;;;;;18.08;12.77;;;;;;;8.31;100.00;103658.25;5164457;27;20050;-77
2023/12/17 09:06:11;;;;;;;22.58;13.23;;;;;;;8.32;100.00;103651.84;5141715;27;20051;-77
2023/12/17 09:08:38;;;;;;;21.83;12.95;;;;;;;8.33;100.00;103651.53;5179269;27;20088;-77
2023/12/17 09:11:05;;;;;;;22.50;14.13;;;;;;;8.31;100.00;103656.38;5183341;27;20553;-79
2023/12/17 09:13:32;;;;;;;25.50;14.27;;;;;;;8.31;100.00;103651.06;5171605;27;20061;-81
2023/12/17 09:15:59;;;;;;;28.10;14.95;;;;;;;8.34;100.00;103649.63;5184521;27;20778;-80
2023/12/17 09:18:25;;;;;;;24.40;13.90;;;;;;;8.34;100.00;103655.72;5166359;27;20049;-79
2023/12/17 09:20:52;;;;;;;23.25;14.18;;;;;;;8.38;100.00;103652.34;5165320;27;20053;-80
2023/12/17 09:23:19;;;;;;;28.15;14.70;;;;;;;8.39;100.00;103656.53;5161447;27;20050;-80
2023/12/17 09:25:45;;;;;;;28.60;15.35;;;;;;;8.38;100.00;103652.34;5183308;27;20050;-80
2023/12/17 09:28:12;;;;;;;24.70;15.25;;;;;;;8.37;100.00;103654.22;5185134;27;20038;-80
2023/12/17 09:30:38;;;;;;;24.58;15.15;;;;;;;8.38;100.00;103652.34;5180819;27;20047;-80
2023/12/17 09:33:06;;;;;;;29.50;15.23;;;;;;;8.38;100.00;103669.03;5181655;27;20126;-80
2023/12/17 09:35:33;;;;;;;26.13;14.93;;;;;;;8.39;100.00;103665.28;5163324;27;20046;-80
2023/12/17 09:37:59;;;;;;;21.45;14.18;;;;;;;8.34;100.00;103658.34;5168976;27;20054;-80
2023/12/17 09:40:26;;;;;;;24.33;13.57;;;;;;;8.34;100.00;103668.22;5170670;27;20076;-80
2023/12/17 09:42:53;;;;;;;20.23;13.70;;;;;;;8.33;100.00;103664.78;5164171;27;20050;-80
2023/12/17 09:45:20;;;;;;;22.65;14.00;;;;;;;8.34;100.00;103674.28;5167790;27;20058;-80
2023/12/17 09:47:47;;;;;;;26.55;14.45;;;;;;;8.35;100.00;103665.19;5155060;27;20043;-79
2023/12/17 09:50:14;;;;;;;26.08;13.88;;;;;;;8.32;100.00;103675.72;5168955;27;20068;-77
2023/12/17 09:52:44;;;;;;;22.52;13.50;;;;;;;8.27;100.00;103676.78;5187765;27;20073;-79
2023/12/17 09:55:11;;;;;;;20.88;13.80;;;;;;;8.24;100.00;103682.78;5165217;27;20104;-79
2023/12/17 09:57:37;;;;;;;20.48;13.27;;;;;;;8.26;100.00;103685.88;5169564;27;20039;-79
2023/12/17 10:00:09;;;;;;;21.67;13.57;;;;;;;8.30;100.00;103686.69;5173926;27;20136;-79
2023/12/17 10:02:37;;;;;;;17.92;11.93;;;;;;;8.31;100.00;103682.16;5172376;27;20043;-79
2023/12/17 10:05:06;;;;;;;22.98;12.70;;;;;;;8.28;100.00;103688.94;5169241;27;20043;-79
2023/12/17 10:07:34;;;;;;;20.90;12.38;;;;;;;8.27;100.00;103673.34;5188606;27;20060;-80
2023/12/17 10:10:00;;;;;;;19.35;12.43;;;;;;;8.30;100.00;103675.31;5167271;27;20047;-80
2023/12/17 10:12:27;;;;;;;20.23;12.27;;;;;;;8.29;100.00;103663.16;5161881;27;21096;-81
2023/12/17 10:14:55;;;;;;;20.40;12.75;;;;;;;8.26;100.00;103667.28;5163912;27;20560;-81
2023/12/17 10:17:22;;;;;;;20.30;12.32;;;;;;;8.26;100.00;103663.88;5165568;27;20050;-80
2023/12/17 10:19:54;;;;;;;19.85;11.98;;;;;;;8.27;100.00;103657.44;5165293;27;20529;-80
2023/12/17 10:22:22;;;;;;;19.98;12.75;;;;;;;8.26;100.00;103651.34;5166461;27;20077;-80
2023/12/17 10:24:49;;;;;;;19.35;12.43;;;;;;;8.24;100.00;103648.28;5168581;27;20129;-80
2023/12/17 10:27:20;;;;;;;23.05;12.52;;;;;;;8.22;100.00;103655.06;5182543;27;20034;-80
2023/12/17 10:29:52;;;;;;;19.35;12.38;;;;;;;8.25;100.00;103646.41;5163226;27;20046;-81
2023/12/17 10:32:22;;;;;;;;;;;;;;;8.25;100.00;103641.09;5183353;27;20038;-80
2023/12/17 10:34:51;;;;;;;20.50;11.80;;;;;;;8.22;100.00;103649.75;5162726;27;19923;-81
2023/12/17 10:37:19;;;;;;;22.08;13.32;;;;;;;8.18;100.00;103633.78;5162274;27;20068;-81
2023/12/17 10:39:50;;;;;;;21.95;13.68;;;;;;;8.16;100.00;103640.53;5181638;27;20098;-80
2023/12/17 10:42:18;;;;;;;18.92;12.00;;;;;;;8.15;100.00;103634.47;5181890;27;20074;-81
2023/12/17 10:44:49;;;;;;;21.27;13.20;;;;;;;8.18;100.00;103635.66;5164393;27;20068;-80
2023/12/17 10:47:24;;;;;;;20.80;12.55;;;;;;;8.20;100.00;103634.19;5183665;27;20078;-81
2023/12/17 10:49:55;;;;;;;20.00;12.85;;;;;;;8.19;100.00;103634.53;5148475;27;20038;-81
2023/12/17 10:52:23;;;;;;;20.15;13.30;;;;;;;8.22;100.00;103637.25;5165241;27;20050;-80
2023/12/17 10:54:51;;;;;;;23.90;14.25;;;;;;;8.23;100.00;103632.72;5156622;27;20078;-81
2023/12/17 10:57:22;;;;;;;25.52;13.48;;;;;;;8.23;100.00;103624.75;5185376;27;20096;-81
2023/12/17 10:59:52;;;;;;;23.92;13.77;;;;;;;8.22;100.00;103618.69;5172299;27;20043;-80
2023/12/17 11:02:22;;;;;;;23.40;13.93;;;;;;;8.25;100.00;103630.47;5154886;27;20080;-80
2023/12/17 11:04:49;;;;;;;21.08;13.70;;;;;;;8.27;100.00;103614.97;5176023;27;20047;-80
2023/12/17 11:07:18;;;;;;;21.02;12.55;;;;;;;8.26;100.00;103608.91;5192301;27;20426;-80
2023/12/17 11:10:00;;;;;;;22.40;13.88;;;;;;;8.27;100.00;103615.75;5173692;27;20039;-80
2023/12/17 11:12:27;;;;;;;21.77;13.30;;;;;;;8.30;100.00;103595.69;5168856;27;20050;-81
2023/12/17 11:14:54;;;;;;;22.55;14.80;;;;;;;8.30;100.00;103593.03;5169819;27;20062;-80
2023/12/17 11:17:21;;;;;;;26.15;15.02;;;;;;;8.34;100.00;103588.59;5168876;27;20050;-80
2023/12/17 11:19:56;;;;;;;23.27;15.68;;;;;;;8.39;100.00;103585.63;5168630;27;20473;-80